sensor_id;sensor_type;location;lat;lon;timestamp;P1;durP1;ratioP1;P2;durP2;ratioP2
5460;SDS011;2753;49.196;8.286;2023-07-08T00:00:20;16.30;;;9.47;;
5460;SDS011;2753;49.196;8.286;2023-07-08T00:02:47;11.67;;;8.80;;
5460;SDS011;2753;49.196;8.286;2023-07-08T00:05:14;11.60;;;9.00;;
5460;SDS011;2753;49.196;8.286;2023-07-08T00:07:41;11.50;;;8.87;;
5460;SDS011;2753;49.196;8.286;2023-07-08T00:10:18;30.60;;;9.60;;
5460;SDS011;2753;49.196;8.286;2023-07-08T00:12:47;14.40;;;8.83;;
5460;SDS011;2753;49.196;8.286;2023-07-08T00:15:14;16.03;;;8.60;;
5460;SDS011;2753;49.196;8.286;2023-07-08T00:17:41;15.93;;;9.33;;
5460;SDS011;2753;49.196;8.286;2023-07-08T00:20:15;23.53;;;9.60;;
5460;SDS011;2753;49.196;8.286;2023-07-08T00:22:42;16.70;;;9.83;;
5460;SDS011;2753;49.196;8.286;2023-07-08T00:25:12;12.07;;;9.03;;
5460;SDS011;2753;49.196;8.286;2023-07-08T00:27:41;16.03;;;10.07;;
5460;SDS011;2753;49.196;8.286;2023-07-08T00:30:13;16.10;;;8.80;;
5460;SDS011;2753;49.196;8.286;2023-07-08T00:32:47;15.43;;;9.40;;
5460;SDS011;2753;49.196;8.286;2023-07-08T00:35:22;16.50;;;9.60;;
5460;SDS011;2753;49.196;8.286;2023-07-08T00:37:51;17.97;;;9.23;;
5460;SDS011;2753;49.196;8.286;2023-07-08T00:40:18;13.40;;;9.00;;
5460;SDS011;2753;49.196;8.286;2023-07-08T00:42:46;22.40;;;10.23;;
5460;SDS011;2753;49.196;8.286;2023-07-08T00:45:28;11.63;;;9.10;;
5460;SDS011;2753;49.196;8.286;2023-07-08T00:47:55;12.00;;;8.60;;
5460;SDS011;2753;49.196;8.286;2023-07-08T00:50:24;14.93;;;8.30;;
5460;SDS011;2753;49.196;8.286;2023-07-08T00:53:13;14.23;;;9.60;;
5460;SDS011;2753;49.196;8.286;2023-07-08T00:55:54;10.17;;;8.00;;
5460;SDS011;2753;49.196;8.286;2023-07-08T00:58:30;13.03;;;9.13;;
5460;SDS011;2753;49.196;8.286;2023-07-08T01:01:05;14.97;;;8.37;;
5460;SDS011;2753;49.196;8.286;2023-07-08T01:03:31;15.37;;;9.43;;
5460;SDS011;2753;49.196;8.286;2023-07-08T01:06:07;12.90;;;8.53;;
5460;SDS011;2753;49.196;8.286;2023-07-08T01:08:33;13.07;;;8.63;;
5460;SDS011;2753;49.196;8.286;2023-07-08T01:11:00;15.57;;;9.33;;
5460;SDS011;2753;49.196;8.286;2023-07-08T01:13:29;19.93;;;9.60;;
5460;SDS011;2753;49.196;8.286;2023-07-08T01:16:01;14.93;;;9.37;;
5460;SDS011;2753;49.196;8.286;2023-07-08T01:18:28;12.10;;;8.60;;
5460;SDS011;2753;49.196;8.286;2023-07-08T01:20:54;14.00;;;9.33;;
5460;SDS011;2753;49.196;8.286;2023-07-08T01:23:23;16.87;;;8.40;;
5460;SDS011;2753;49.196;8.286;2023-07-08T01:25:49;12.37;;;9.50;;
5460;SDS011;2753;49.196;8.286;2023-07-08T01:28:15;14.93;;;9.43;;
5460;SDS011;2753;49.196;8.286;2023-07-08T01:30:42;13.00;;;9.20;;
5460;SDS011;2753;49.196;8.286;2023-07-08T01:33:12;10.43;;;8.50;;
5460;SDS011;2753;49.196;8.286;2023-07-08T01:35:47;12.20;;;8.80;;
5460;SDS011;2753;49.196;8.286;2023-07-08T01:38:17;13.53;;;8.27;;
5460;SDS011;2753;49.196;8.286;2023-07-08T01:40:48;12.67;;;9.07;;
5460;SDS011;2753;49.196;8.286;2023-07-08T01:43:18;12.37;;;8.60;;
5460;SDS011;2753;49.196;8.286;2023-07-08T01:45:44;9.70;;;7.90;;
5460;SDS011;2753;49.196;8.286;2023-07-08T01:48:16;15.33;;;8.90;;
5460;SDS011;2753;49.196;8.286;2023-07-08T01:50:57;13.17;;;8.60;;
5460;SDS011;2753;49.196;8.286;2023-07-08T01:53:31;12.17;;;8.40;;
5460;SDS011;2753;49.196;8.286;2023-07-08T01:56:02;16.77;;;8.50;;
5460;SDS011;2753;49.196;8.286;2023-07-08T01:58:28;17.23;;;8.20;;
5460;SDS011;2753;49.196;8.286;2023-07-08T02:00:54;12.57;;;8.90;;
5460;SDS011;2753;49.196;8.286;2023-07-08T02:03:20;13.43;;;9.20;;
5460;SDS011;2753;49.196;8.286;2023-07-08T02:05:46;13.97;;;8.17;;
5460;SDS011;2753;49.196;8.286;2023-07-08T02:08:12;12.97;;;8.70;;
5460;SDS011;2753;49.196;8.286;2023-07-08T02:10:38;14.73;;;9.37;;
5460;SDS011;2753;49.196;8.286;2023-07-08T02:13:05;12.30;;;8.30;;
5460;SDS011;2753;49.196;8.286;2023-07-08T02:15:31;11.63;;;8.60;;
5460;SDS011;2753;49.196;8.286;2023-07-08T02:17:57;13.13;;;8.83;;
5460;SDS011;2753;49.196;8.286;2023-07-08T02:20:22;13.90;;;9.17;;
5460;SDS011;2753;49.196;8.286;2023-07-08T02:22:48;11.63;;;8.33;;
5460;SDS011;2753;49.196;8.286;2023-07-08T02:25:14;14.63;;;9.60;;
5460;SDS011;2753;49.196;8.286;2023-07-08T02:27:40;11.47;;;8.23;;
5460;SDS011;2753;49.196;8.286;2023-07-08T02:30:07;17.93;;;8.63;;
5460;SDS011;2753;49.196;8.286;2023-07-08T02:32:33;12.03;;;8.27;;
5460;SDS011;2753;49.196;8.286;2023-07-08T02:35:00;13.23;;;8.07;;
5460;SDS011;2753;49.196;8.286;2023-07-08T02:37:30;12.40;;;9.20;;
5460;SDS011;2753;49.196;8.286;2023-07-08T02:39:57;13.13;;;8.80;;
5460;SDS011;2753;49.196;8.286;2023-07-08T02:42:23;13.30;;;9.30;;
5460;SDS011;2753;49.196;8.286;2023-07-08T02:44:48;12.23;;;8.77;;
5460;SDS011;2753;49.196;8.286;2023-07-08T02:47:14;11.83;;;8.00;;
5460;SDS011;2753;49.196;8.286;2023-07-08T02:49:40;15.80;;;8.43;;
5460;SDS011;2753;49.196;8.286;2023-07-08T02:52:06;12.00;;;8.40;;
5460;SDS011;2753;49.196;8.286;2023-07-08T02:54:31;16.20;;;9.00;;
5460;SDS011;2753;49.196;8.286;2023-07-08T02:56:57;12.37;;;8.57;;
5460;SDS011;2753;49.196;8.286;2023-07-08T02:59:23;15.17;;;9.10;;
5460;SDS011;2753;49.196;8.286;2023-07-08T03:01:49;12.70;;;9.17;;
5460;SDS011;2753;49.196;8.286;2023-07-08T03:04:15;14.07;;;8.57;;
5460;SDS011;2753;49.196;8.286;2023-07-08T03:06:41;10.73;;;7.87;;
5460;SDS011;2753;49.196;8.286;2023-07-08T03:09:08;13.80;;;8.80;;
5460;SDS011;2753;49.196;8.286;2023-07-08T03:11:34;12.60;;;8.53;;
5460;SDS011;2753;49.196;8.286;2023-07-08T03:14:01;10.60;;;7.67;;
5460;SDS011;2753;49.196;8.286;2023-07-08T03:16:27;14.40;;;8.43;;
5460;SDS011;2753;49.196;8.286;2023-07-08T03:18:53;12.80;;;8.80;;
5460;SDS011;2753;49.196;8.286;2023-07-08T03:21:18;14.60;;;9.10;;
5460;SDS011;2753;49.196;8.286;2023-07-08T03:23:44;12.50;;;8.30;;
5460;SDS011;2753;49.196;8.286;2023-07-08T03:26:24;13.60;;;8.80;;
5460;SDS011;2753;49.196;8.286;2023-07-08T03:28:53;12.37;;;8.37;;
5460;SDS011;2753;49.196;8.286;2023-07-08T03:31:19;11.23;;;8.97;;
5460;SDS011;2753;49.196;8.286;2023-07-08T03:33:45;12.87;;;8.87;;
5460;SDS011;2753;49.196;8.286;2023-07-08T03:36:14;12.77;;;8.60;;
5460;SDS011;2753;49.196;8.286;2023-07-08T03:38:55;11.87;;;8.17;;
5460;SDS011;2753;49.196;8.286;2023-07-08T03:41:22;14.47;;;8.80;;
5460;SDS011;2753;49.196;8.286;2023-07-08T03:43:48;18.30;;;8.80;;
5460;SDS011;2753;49.196;8.286;2023-07-08T03:46:15;13.73;;;8.83;;
5460;SDS011;2753;49.196;8.286;2023-07-08T03:48:43;24.83;;;9.80;;
5460;SDS011;2753;49.196;8.286;2023-07-08T03:51:09;14.90;;;9.40;;
5460;SDS011;2753;49.196;8.286;2023-07-08T03:53:42;20.33;;;8.73;;
5460;SDS011;2753;49.196;8.286;2023-07-08T03:56:09;13.60;;;8.53;;
5460;SDS011;2753;49.196;8.286;2023-07-08T03:58:38;17.50;;;8.90;;
5460;SDS011;2753;49.196;8.286;2023-07-08T04:01:04;16.60;;;9.40;;
5460;SDS011;2753;49.196;8.286;2023-07-08T04:03:29;12.50;;;8.40;;
5460;SDS011;2753;49.196;8.286;2023-07-08T04:05:55;11.83;;;8.17;;
5460;SDS011;2753;49.196;8.286;2023-07-08T04:08:21;13.40;;;8.27;;
5460;SDS011;2753;49.196;8.286;2023-07-08T04:10:46;12.17;;;8.20;;
5460;SDS011;2753;49.196;8.286;2023-07-08T04:13:12;14.67;;;8.70;;
5460;SDS011;2753;49.196;8.286;2023-07-08T04:15:38;11.30;;;8.50;;
5460;SDS011;2753;49.196;8.286;2023-07-08T04:18:03;12.73;;;8.70;;
5460;SDS011;2753;49.196;8.286;2023-07-08T04:20:29;15.00;;;9.53;;
5460;SDS011;2753;49.196;8.286;2023-07-08T04:22:55;13.77;;;9.03;;
5460;SDS011;2753;49.196;8.286;2023-07-08T04:25:20;13.20;;;8.93;;
5460;SDS011;2753;49.196;8.286;2023-07-08T04:27:46;22.10;;;8.80;;
5460;SDS011;2753;49.196;8.286;2023-07-08T04:30:22;12.10;;;9.20;;
5460;SDS011;2753;49.196;8.286;2023-07-08T04:32:51;12.70;;;8.33;;
5460;SDS011;2753;49.196;8.286;2023-07-08T04:35:17;13.33;;;8.50;;
5460;SDS011;2753;49.196;8.286;2023-07-08T04:37:42;12.80;;;8.80;;
5460;SDS011;2753;49.196;8.286;2023-07-08T04:40:19;16.97;;;8.80;;
5460;SDS011;2753;49.196;8.286;2023-07-08T04:42:46;12.40;;;8.73;;
5460;SDS011;2753;49.196;8.286;2023-07-08T04:45:13;11.50;;;8.47;;
5460;SDS011;2753;49.196;8.286;2023-07-08T04:47:40;11.87;;;7.93;;
5460;SDS011;2753;49.196;8.286;2023-07-08T04:50:05;12.23;;;8.73;;
5460;SDS011;2753;49.196;8.286;2023-07-08T04:52:32;17.80;;;9.07;;
5460;SDS011;2753;49.196;8.286;2023-07-08T04:54:58;16.20;;;7.73;;
5460;SDS011;2753;49.196;8.286;2023-07-08T04:57:24;11.77;;;8.20;;
5460;SDS011;2753;49.196;8.286;2023-07-08T04:59:50;12.00;;;8.57;;
5460;SDS011;2753;49.196;8.286;2023-07-08T05:02:15;16.20;;;7.47;;
5460;SDS011;2753;49.196;8.286;2023-07-08T05:04:41;10.00;;;7.60;;
5460;SDS011;2753;49.196;8.286;2023-07-08T05:07:07;16.00;;;8.57;;
5460;SDS011;2753;49.196;8.286;2023-07-08T05:09:32;13.00;;;7.80;;
5460;SDS011;2753;49.196;8.286;2023-07-08T05:11:58;10.60;;;8.17;;
5460;SDS011;2753;49.196;8.286;2023-07-08T05:14:24;10.67;;;7.43;;
5460;SDS011;2753;49.196;8.286;2023-07-08T05:16:49;9.33;;;7.47;;
5460;SDS011;2753;49.196;8.286;2023-07-08T05:19:15;15.70;;;8.60;;
5460;SDS011;2753;49.196;8.286;2023-07-08T05:21:41;11.23;;;7.70;;
5460;SDS011;2753;49.196;8.286;2023-07-08T05:24:08;15.37;;;8.00;;
5460;SDS011;2753;49.196;8.286;2023-07-08T05:26:33;15.73;;;8.57;;
5460;SDS011;2753;49.196;8.286;2023-07-08T05:28:59;11.60;;;8.60;;
5460;SDS011;2753;49.196;8.286;2023-07-08T05:31:25;10.60;;;7.70;;
5460;SDS011;2753;49.196;8.286;2023-07-08T05:33:51;18.00;;;8.70;;
5460;SDS011;2753;49.196;8.286;2023-07-08T05:36:17;13.07;;;8.50;;
5460;SDS011;2753;49.196;8.286;2023-07-08T05:38:42;22.83;;;8.67;;
5460;SDS011;2753;49.196;8.286;2023-07-08T05:41:08;22.90;;;7.33;;
5460;SDS011;2753;49.196;8.286;2023-07-08T05:43:34;13.20;;;8.10;;
5460;SDS011;2753;49.196;8.286;2023-07-08T05:46:00;16.70;;;8.13;;
5460;SDS011;2753;49.196;8.286;2023-07-08T05:48:27;11.00;;;6.50;;
5460;SDS011;2753;49.196;8.286;2023-07-08T05:50:53;11.80;;;7.80;;
5460;SDS011;2753;49.196;8.286;2023-07-08T05:53:19;14.50;;;8.10;;
5460;SDS011;2753;49.196;8.286;2023-07-08T05:55:48;10.50;;;7.77;;
5460;SDS011;2753;49.196;8.286;2023-07-08T05:58:15;23.77;;;8.57;;
5460;SDS011;2753;49.196;8.286;2023-07-08T06:00:41;23.93;;;9.07;;
5460;SDS011;2753;49.196;8.286;2023-07-08T06:03:07;11.73;;;7.70;;
5460;SDS011;2753;49.196;8.286;2023-07-08T06:05:33;13.27;;;7.20;;
5460;SDS011;2753;49.196;8.286;2023-07-08T06:07:59;11.00;;;8.13;;
5460;SDS011;2753;49.196;8.286;2023-07-08T06:10:25;11.73;;;7.73;;
5460;SDS011;2753;49.196;8.286;2023-07-08T06:12:51;10.40;;;8.10;;
5460;SDS011;2753;49.196;8.286;2023-07-08T06:15:16;10.67;;;7.13;;
5460;SDS011;2753;49.196;8.286;2023-07-08T06:17:42;18.93;;;8.77;;
5460;SDS011;2753;49.196;8.286;2023-07-08T06:20:08;11.70;;;7.77;;
5460;SDS011;2753;49.196;8.286;2023-07-08T06:22:33;16.10;;;8.53;;
5460;SDS011;2753;49.196;8.286;2023-07-08T06:24:59;12.73;;;7.27;;
5460;SDS011;2753;49.196;8.286;2023-07-08T06:27:25;10.97;;;7.33;;
5460;SDS011;2753;49.196;8.286;2023-07-08T06:29:50;10.47;;;7.20;;
5460;SDS011;2753;49.196;8.286;2023-07-08T06:32:16;17.20;;;7.60;;
5460;SDS011;2753;49.196;8.286;2023-07-08T06:34:42;10.93;;;6.37;;
5460;SDS011;2753;49.196;8.286;2023-07-08T06:37:07;16.70;;;7.57;;
5460;SDS011;2753;49.196;8.286;2023-07-08T06:39:33;14.30;;;7.00;;
5460;SDS011;2753;49.196;8.286;2023-07-08T06:41:59;10.57;;;6.90;;
5460;SDS011;2753;49.196;8.286;2023-07-08T06:44:24;10.83;;;6.97;;
5460;SDS011;2753;49.196;8.286;2023-07-08T06:46:51;10.70;;;5.50;;
5460;SDS011;2753;49.196;8.286;2023-07-08T06:49:17;9.03;;;6.10;;
5460;SDS011;2753;49.196;8.286;2023-07-08T06:51:42;10.57;;;5.80;;
5460;SDS011;2753;49.196;8.286;2023-07-08T06:54:10;9.10;;;5.20;;
5460;SDS011;2753;49.196;8.286;2023-07-08T06:56:40;8.00;;;5.60;;
5460;SDS011;2753;49.196;8.286;2023-07-08T06:59:07;11.53;;;5.20;;
5460;SDS011;2753;49.196;8.286;2023-07-08T07:01:33;10.20;;;4.97;;
5460;SDS011;2753;49.196;8.286;2023-07-08T07:03:59;5.70;;;4.20;;
5460;SDS011;2753;49.196;8.286;2023-07-08T07:06:25;20.43;;;5.90;;
5460;SDS011;2753;49.196;8.286;2023-07-08T07:08:51;16.03;;;5.10;;
5460;SDS011;2753;49.196;8.286;2023-07-08T07:11:16;10.70;;;5.20;;
5460;SDS011;2753;49.196;8.286;2023-07-08T07:13:44;9.27;;;5.40;;
5460;SDS011;2753;49.196;8.286;2023-07-08T07:16:10;19.30;;;5.60;;
5460;SDS011;2753;49.196;8.286;2023-07-08T07:18:35;21.07;;;4.60;;
5460;SDS011;2753;49.196;8.286;2023-07-08T07:21:01;13.27;;;4.60;;
5460;SDS011;2753;49.196;8.286;2023-07-08T07:23:27;11.60;;;4.10;;
5460;SDS011;2753;49.196;8.286;2023-07-08T07:25:52;9.07;;;4.23;;
5460;SDS011;2753;49.196;8.286;2023-07-08T07:28:18;14.20;;;5.07;;
5460;SDS011;2753;49.196;8.286;2023-07-08T07:30:44;8.50;;;4.20;;
5460;SDS011;2753;49.196;8.286;2023-07-08T07:33:11;11.17;;;4.00;;
5460;SDS011;2753;49.196;8.286;2023-07-08T07:35:44;6.87;;;3.93;;
5460;SDS011;2753;49.196;8.286;2023-07-08T07:38:10;7.20;;;3.27;;
5460;SDS011;2753;49.196;8.286;2023-07-08T07:40:36;7.70;;;3.37;;
5460;SDS011;2753;49.196;8.286;2023-07-08T07:43:04;9.80;;;4.50;;
5460;SDS011;2753;49.196;8.286;2023-07-08T07:45:30;5.70;;;4.10;;
5460;SDS011;2753;49.196;8.286;2023-07-08T07:47:55;6.73;;;3.67;;
5460;SDS011;2753;49.196;8.286;2023-07-08T07:50:21;12.43;;;4.30;;
5460;SDS011;2753;49.196;8.286;2023-07-08T07:52:47;5.70;;;3.80;;
5460;SDS011;2753;49.196;8.286;2023-07-08T07:55:12;6.50;;;3.50;;
5460;SDS011;2753;49.196;8.286;2023-07-08T07:57:38;12.07;;;3.90;;
5460;SDS011;2753;49.196;8.286;2023-07-08T08:00:04;6.03;;;3.80;;
5460;SDS011;2753;49.196;8.286;2023-07-08T08:02:31;6.93;;;3.70;;
5460;SDS011;2753;49.196;8.286;2023-07-08T08:04:57;8.37;;;3.57;;
5460;SDS011;2753;49.196;8.286;2023-07-08T08:07:23;6.37;;;3.70;;
5460;SDS011;2753;49.196;8.286;2023-07-08T08:09:48;9.70;;;3.83;;
5460;SDS011;2753;49.196;8.286;2023-07-08T08:12:14;8.53;;;3.90;;
5460;SDS011;2753;49.196;8.286;2023-07-08T08:14:40;7.20;;;3.37;;
5460;SDS011;2753;49.196;8.286;2023-07-08T08:17:06;15.50;;;4.07;;
5460;SDS011;2753;49.196;8.286;2023-07-08T08:19:31;8.80;;;3.60;;
5460;SDS011;2753;49.196;8.286;2023-07-08T08:21:57;18.60;;;3.43;;
5460;SDS011;2753;49.196;8.286;2023-07-08T08:24:23;9.00;;;4.30;;
5460;SDS011;2753;49.196;8.286;2023-07-08T08:26:48;6.93;;;3.83;;
5460;SDS011;2753;49.196;8.286;2023-07-08T08:29:14;7.40;;;4.70;;
5460;SDS011;2753;49.196;8.286;2023-07-08T08:31:40;16.30;;;4.70;;
5460;SDS011;2753;49.196;8.286;2023-07-08T08:34:05;8.93;;;4.03;;
5460;SDS011;2753;49.196;8.286;2023-07-08T08:36:31;8.80;;;3.40;;
5460;SDS011;2753;49.196;8.286;2023-07-08T08:38:56;7.50;;;3.47;;
5460;SDS011;2753;49.196;8.286;2023-07-08T08:41:33;6.50;;;4.00;;
5460;SDS011;2753;49.196;8.286;2023-07-08T08:44:02;8.37;;;3.70;;
5460;SDS011;2753;49.196;8.286;2023-07-08T08:51:50;10.47;;;4.30;;
5460;SDS011;2753;49.196;8.286;2023-07-08T08:54:17;4.87;;;3.87;;
5460;SDS011;2753;49.196;8.286;2023-07-08T09:00:00;9.10;;;3.30;;
5460;SDS011;2753;49.196;8.286;2023-07-08T09:05:07;7.60;;;3.30;;
5460;SDS011;2753;49.196;8.286;2023-07-08T09:10:21;5.53;;;3.63;;
5460;SDS011;2753;49.196;8.286;2023-07-08T09:12:57;4.13;;;3.73;;
5460;SDS011;2753;49.196;8.286;2023-07-08T09:15:25;7.00;;;3.50;;
5460;SDS011;2753;49.196;8.286;2023-07-08T09:17:51;5.77;;;3.43;;
5460;SDS011;2753;49.196;8.286;2023-07-08T09:20:26;11.10;;;3.97;;
5460;SDS011;2753;49.196;8.286;2023-07-08T09:22:58;5.70;;;3.77;;
5460;SDS011;2753;49.196;8.286;2023-07-08T09:25:35;6.97;;;4.07;;
5460;SDS011;2753;49.196;8.286;2023-07-08T09:28:04;6.30;;;3.60;;
5460;SDS011;2753;49.196;8.286;2023-07-08T09:30:30;7.17;;;3.17;;
5460;SDS011;2753;49.196;8.286;2023-07-08T09:32:56;3.50;;;3.20;;
5460;SDS011;2753;49.196;8.286;2023-07-08T09:35:29;5.77;;;3.43;;
5460;SDS011;2753;49.196;8.286;2023-07-08T09:38:13;7.90;;;3.70;;
5460;SDS011;2753;49.196;8.286;2023-07-08T09:40:42;6.37;;;3.70;;
5460;SDS011;2753;49.196;8.286;2023-07-08T09:45:41;7.77;;;4.30;;
5460;SDS011;2753;49.196;8.286;2023-07-08T09:48:20;8.50;;;3.27;;
5460;SDS011;2753;49.196;8.286;2023-07-08T09:50:51;9.50;;;3.10;;
5460;SDS011;2753;49.196;8.286;2023-07-08T09:53:18;7.13;;;3.07;;
5460;SDS011;2753;49.196;8.286;2023-07-08T09:55:44;4.10;;;2.87;;
5460;SDS011;2753;49.196;8.286;2023-07-08T09:58:24;8.90;;;3.10;;
5460;SDS011;2753;49.196;8.286;2023-07-08T10:01:10;8.43;;;3.73;;
5460;SDS011;2753;49.196;8.286;2023-07-08T10:03:37;6.70;;;2.77;;
5460;SDS011;2753;49.196;8.286;2023-07-08T10:06:05;10.20;;;4.00;;
5460;SDS011;2753;49.196;8.286;2023-07-08T10:08:42;4.63;;;3.23;;
5460;SDS011;2753;49.196;8.286;2023-07-08T10:16:48;7.97;;;3.67;;
5460;SDS011;2753;49.196;8.286;2023-07-08T10:19:15;5.57;;;3.47;;
5460;SDS011;2753;49.196;8.286;2023-07-08T10:29:56;6.33;;;3.80;;
5460;SDS011;2753;49.196;8.286;2023-07-08T10:35:01;10.50;;;3.80;;
5460;SDS011;2753;49.196;8.286;2023-07-08T10:51:48;6.73;;;3.20;;
5460;SDS011;2753;49.196;8.286;2023-07-08T11:06:18;7.43;;;3.40;;
5460;SDS011;2753;49.196;8.286;2023-07-08T11:08:57;8.50;;;3.67;;
5460;SDS011;2753;49.196;8.286;2023-07-08T11:11:29;7.40;;;4.00;;
5460;SDS011;2753;49.196;8.286;2023-07-08T11:14:11;9.93;;;4.53;;
5460;SDS011;2753;49.196;8.286;2023-07-08T11:17:36;7.83;;;3.40;;
5460;SDS011;2753;49.196;8.286;2023-07-08T11:22:25;10.80;;;4.43;;
5460;SDS011;2753;49.196;8.286;2023-07-08T11:24:54;13.90;;;4.10;;
5460;SDS011;2753;49.196;8.286;2023-07-08T11:27:26;7.63;;;4.33;;
5460;SDS011;2753;49.196;8.286;2023-07-08T11:30:01;4.97;;;4.43;;
5460;SDS011;2753;49.196;8.286;2023-07-08T11:32:29;4.37;;;3.20;;
5460;SDS011;2753;49.196;8.286;2023-07-08T11:34:57;14.23;;;3.47;;
5460;SDS011;2753;49.196;8.286;2023-07-08T11:37:25;10.77;;;4.30;;
5460;SDS011;2753;49.196;8.286;2023-07-08T11:40:16;7.43;;;3.93;;
5460;SDS011;2753;49.196;8.286;2023-07-08T11:42:49;5.07;;;3.93;;
5460;SDS011;2753;49.196;8.286;2023-07-08T11:47:44;5.30;;;3.93;;
5460;SDS011;2753;49.196;8.286;2023-07-08T11:52:57;4.63;;;3.40;;
5460;SDS011;2753;49.196;8.286;2023-07-08T11:55:26;6.83;;;3.80;;
5460;SDS011;2753;49.196;8.286;2023-07-08T12:01:05;8.70;;;3.90;;
5460;SDS011;2753;49.196;8.286;2023-07-08T12:04:00;3.60;;;3.30;;
5460;SDS011;2753;49.196;8.286;2023-07-08T12:06:46;6.67;;;3.33;;
5460;SDS011;2753;49.196;8.286;2023-07-08T12:09:23;7.33;;;4.17;;
5460;SDS011;2753;49.196;8.286;2023-07-08T12:11:53;8.40;;;3.60;;
5460;SDS011;2753;49.196;8.286;2023-07-08T12:14:30;12.73;;;3.93;;
5460;SDS011;2753;49.196;8.286;2023-07-08T12:16:57;4.70;;;3.40;;
5460;SDS011;2753;49.196;8.286;2023-07-08T12:19:23;6.20;;;3.70;;
5460;SDS011;2753;49.196;8.286;2023-07-08T12:21:52;9.33;;;3.43;;
5460;SDS011;2753;49.196;8.286;2023-07-08T12:24:18;6.47;;;3.60;;
5460;SDS011;2753;49.196;8.286;2023-07-08T12:26:50;6.33;;;3.87;;
5460;SDS011;2753;49.196;8.286;2023-07-08T12:29:15;11.30;;;3.50;;
5460;SDS011;2753;49.196;8.286;2023-07-08T12:31:41;10.80;;;3.57;;
5460;SDS011;2753;49.196;8.286;2023-07-08T12:34:14;4.73;;;3.20;;
5460;SDS011;2753;49.196;8.286;2023-07-08T12:36:42;9.63;;;3.80;;
5460;SDS011;2753;49.196;8.286;2023-07-08T12:39:10;5.80;;;3.47;;
5460;SDS011;2753;49.196;8.286;2023-07-08T12:41:42;11.00;;;3.60;;
5460;SDS011;2753;49.196;8.286;2023-07-08T12:44:20;9.83;;;4.60;;
5460;SDS011;2753;49.196;8.286;2023-07-08T12:46:47;17.03;;;3.63;;
5460;SDS011;2753;49.196;8.286;2023-07-08T12:49:14;5.63;;;3.60;;
5460;SDS011;2753;49.196;8.286;2023-07-08T12:51:41;6.73;;;3.10;;
5460;SDS011;2753;49.196;8.286;2023-07-08T12:54:08;5.50;;;3.93;;
5460;SDS011;2753;49.196;8.286;2023-07-08T12:56:35;8.20;;;4.20;;
5460;SDS011;2753;49.196;8.286;2023-07-08T12:59:02;4.57;;;3.57;;
5460;SDS011;2753;49.196;8.286;2023-07-08T13:01:31;6.13;;;3.50;;
5460;SDS011;2753;49.196;8.286;2023-07-08T13:04:00;9.10;;;3.97;;
5460;SDS011;2753;49.196;8.286;2023-07-08T13:06:29;8.60;;;4.27;;
5460;SDS011;2753;49.196;8.286;2023-07-08T13:08:57;5.70;;;3.30;;
5460;SDS011;2753;49.196;8.286;2023-07-08T13:11:30;7.90;;;4.20;;
5460;SDS011;2753;49.196;8.286;2023-07-08T13:13:57;10.20;;;4.83;;
5460;SDS011;2753;49.196;8.286;2023-07-08T13:16:30;9.53;;;3.57;;
5460;SDS011;2753;49.196;8.286;2023-07-08T13:18:58;3.77;;;3.50;;
5460;SDS011;2753;49.196;8.286;2023-07-08T13:21:25;10.27;;;3.87;;
5460;SDS011;2753;49.196;8.286;2023-07-08T13:23:52;13.60;;;4.17;;
5460;SDS011;2753;49.196;8.286;2023-07-08T13:26:20;5.93;;;3.83;;
5460;SDS011;2753;49.196;8.286;2023-07-08T13:28:47;10.17;;;4.57;;
5460;SDS011;2753;49.196;8.286;2023-07-08T13:31:21;10.27;;;3.70;;
5460;SDS011;2753;49.196;8.286;2023-07-08T13:33:49;8.43;;;3.60;;
5460;SDS011;2753;49.196;8.286;2023-07-08T13:36:17;6.20;;;3.93;;
5460;SDS011;2753;49.196;8.286;2023-07-08T13:38:44;6.17;;;4.13;;
5460;SDS011;2753;49.196;8.286;2023-07-08T13:41:13;6.47;;;3.70;;
5460;SDS011;2753;49.196;8.286;2023-07-08T13:43:47;7.13;;;3.40;;
5460;SDS011;2753;49.196;8.286;2023-07-08T13:49:10;3.67;;;3.37;;
5460;SDS011;2753;49.196;8.286;2023-07-08T13:51:44;7.50;;;3.53;;
5460;SDS011;2753;49.196;8.286;2023-07-08T13:56:39;5.47;;;3.53;;
5460;SDS011;2753;49.196;8.286;2023-07-08T13:59:08;11.73;;;3.90;;
5460;SDS011;2753;49.196;8.286;2023-07-08T14:01:41;7.10;;;3.70;;
5460;SDS011;2753;49.196;8.286;2023-07-08T14:04:10;9.73;;;2.97;;
5460;SDS011;2753;49.196;8.286;2023-07-08T14:06:38;9.17;;;3.67;;
5460;SDS011;2753;49.196;8.286;2023-07-08T14:09:20;4.77;;;3.70;;
5460;SDS011;2753;49.196;8.286;2023-07-08T14:11:48;7.20;;;3.77;;
5460;SDS011;2753;49.196;8.286;2023-07-08T14:14:14;12.57;;;4.30;;
5460;SDS011;2753;49.196;8.286;2023-07-08T14:16:41;6.57;;;3.47;;
5460;SDS011;2753;49.196;8.286;2023-07-08T14:19:16;6.67;;;3.53;;
5460;SDS011;2753;49.196;8.286;2023-07-08T14:21:46;10.07;;;3.80;;
5460;SDS011;2753;49.196;8.286;2023-07-08T14:24:15;5.93;;;3.47;;
5460;SDS011;2753;49.196;8.286;2023-07-08T14:26:41;8.03;;;4.33;;
5460;SDS011;2753;49.196;8.286;2023-07-08T14:29:10;9.97;;;4.00;;
5460;SDS011;2753;49.196;8.286;2023-07-08T14:31:37;6.20;;;3.80;;
5460;SDS011;2753;49.196;8.286;2023-07-08T14:34:11;8.30;;;3.30;;
5460;SDS011;2753;49.196;8.286;2023-07-08T14:36:42;8.87;;;3.40;;
5460;SDS011;2753;49.196;8.286;2023-07-08T14:39:11;7.03;;;3.50;;
5460;SDS011;2753;49.196;8.286;2023-07-08T14:41:38;6.63;;;3.30;;
5460;SDS011;2753;49.196;8.286;2023-07-08T14:44:10;5.03;;;3.43;;
5460;SDS011;2753;49.196;8.286;2023-07-08T14:46:52;6.87;;;3.33;;
5460;SDS011;2753;49.196;8.286;2023-07-08T14:49:19;10.33;;;3.17;;
5460;SDS011;2753;49.196;8.286;2023-07-08T14:51:46;6.60;;;3.57;;
5460;SDS011;2753;49.196;8.286;2023-07-08T14:54:12;3.70;;;3.10;;
5460;SDS011;2753;49.196;8.286;2023-07-08T14:56:38;5.43;;;3.50;;
5460;SDS011;2753;49.196;8.286;2023-07-08T14:59:05;3.03;;;2.80;;
5460;SDS011;2753;49.196;8.286;2023-07-08T15:01:36;8.47;;;3.13;;
5460;SDS011;2753;49.196;8.286;2023-07-08T15:04:01;8.90;;;2.23;;
5460;SDS011;2753;49.196;8.286;2023-07-08T15:06:27;9.43;;;2.90;;
5460;SDS011;2753;49.196;8.286;2023-07-08T15:08:52;3.53;;;2.60;;
5460;SDS011;2753;49.196;8.286;2023-07-08T15:11:18;11.93;;;2.77;;
5460;SDS011;2753;49.196;8.286;2023-07-08T15:13:45;26.17;;;3.30;;
5460;SDS011;2753;49.196;8.286;2023-07-08T15:16:14;12.03;;;2.30;;
5460;SDS011;2753;49.196;8.286;2023-07-08T15:18:41;13.07;;;3.30;;
5460;SDS011;2753;49.196;8.286;2023-07-08T15:21:11;5.03;;;2.63;;
5460;SDS011;2753;49.196;8.286;2023-07-08T15:23:37;3.53;;;2.60;;
5460;SDS011;2753;49.196;8.286;2023-07-08T15:26:03;5.77;;;2.90;;
5460;SDS011;2753;49.196;8.286;2023-07-08T15:28:43;9.20;;;2.50;;
5460;SDS011;2753;49.196;8.286;2023-07-08T15:31:16;4.73;;;2.80;;
5460;SDS011;2753;49.196;8.286;2023-07-08T15:33:43;3.40;;;2.67;;
5460;SDS011;2753;49.196;8.286;2023-07-08T15:36:10;7.33;;;2.50;;
5460;SDS011;2753;49.196;8.286;2023-07-08T15:38:37;6.23;;;2.43;;
5460;SDS011;2753;49.196;8.286;2023-07-08T15:41:04;3.80;;;2.30;;
5460;SDS011;2753;49.196;8.286;2023-07-08T15:43:30;9.13;;;3.10;;
5460;SDS011;2753;49.196;8.286;2023-07-08T15:45:55;14.00;;;3.60;;
5460;SDS011;2753;49.196;8.286;2023-07-08T15:48:21;8.50;;;3.00;;
5460;SDS011;2753;49.196;8.286;2023-07-08T15:50:47;4.53;;;2.60;;
5460;SDS011;2753;49.196;8.286;2023-07-08T15:53:15;6.80;;;3.50;;
5460;SDS011;2753;49.196;8.286;2023-07-08T15:55:42;9.33;;;2.50;;
5460;SDS011;2753;49.196;8.286;2023-07-08T15:58:20;14.00;;;3.70;;
5460;SDS011;2753;49.196;8.286;2023-07-08T16:00:52;7.47;;;2.73;;
5460;SDS011;2753;49.196;8.286;2023-07-08T16:03:21;20.70;;;3.50;;
5460;SDS011;2753;49.196;8.286;2023-07-08T16:05:50;8.40;;;3.23;;
5460;SDS011;2753;49.196;8.286;2023-07-08T16:08:20;7.13;;;3.77;;
5460;SDS011;2753;49.196;8.286;2023-07-08T16:11:20;4.37;;;3.07;;
5460;SDS011;2753;49.196;8.286;2023-07-08T16:13:40;3.93;;;2.97;;
5460;SDS011;2753;49.196;8.286;2023-07-08T16:16:08;2.70;;;2.50;;
5460;SDS011;2753;49.196;8.286;2023-07-08T16:18:36;7.47;;;3.60;;
5460;SDS011;2753;49.196;8.286;2023-07-08T16:21:01;7.87;;;2.63;;
5460;SDS011;2753;49.196;8.286;2023-07-08T16:23:27;9.37;;;3.17;;
5460;SDS011;2753;49.196;8.286;2023-07-08T16:25:53;4.93;;;2.90;;
5460;SDS011;2753;49.196;8.286;2023-07-08T16:28:36;11.13;;;3.67;;
5460;SDS011;2753;49.196;8.286;2023-07-08T16:31:14;3.87;;;2.80;;